SBSL

Details ICAO SBSL (SLZ)
Name Marechal Cunha Machado
Region Brazil
Timezone America/Fortaleza (UTC-3.0)
Plans Departing 65
Arriving 78
Stats Elevation 178 ft / 54 m (AMSL)
Location -2.587308° -44.236384°
Runways 2
Magnetic Variation 20.914° W
Sunrise 2018-05-24 08:55:35 UTC / 2018-05-24 05:55:35 Local
Sunset 2018-05-24 20:54:52 UTC / 2018-05-24 17:54:52 Local
Advertisement - Login to hide

Runways

ID Width Length Bearing (true) Bearing (mag) Surface Threshold Offset Overrun Length
06 148 ft / 45 m 7,902 ft / 2,409 m 38.74° 59.65° Asphalt 0 ft / 0 m 197 ft / 60 m
09 135 ft / 41 m 4,867 ft / 1,483 m 68.93° 89.84° Asphalt 270 ft / 82 m 185 ft / 56 m
24 148 ft / 45 m 7,902 ft / 2,409 m 218.74° 239.65° Asphalt 0 ft / 0 m 197 ft / 60 m
27 135 ft / 41 m 4,867 ft / 1,483 m 248.93° 269.84° Asphalt 0 ft / 0 m 200 ft / 61 m

Map

Weather


0- 5 10 15 20 25 30 35+ Temperature / ° C

Clouds and Precipitation
Forecast for 2018-05-24 12:00 UTC. Updated an hour ago

Ground ~20,000 ft ~40,000 ft Winds

METAR

SBSL 241000Z 07006KT 9999 BKN017 26/25 Q1014

TAF

TAF SBSL 240400Z 2406/2506 06005KT 9999 FEW017 TN23/2407Z TX30/2416Z BECMG 2410/2412 09008KT BECMG 2415/2417 05010KT SCT020 FEW025TCU PROB30 TEMPO 2417/2420 5000 RA BECMG 2422/2424 07005KT FEW017 RMK PCQ

Frequencies

Tower 118.70 MHz SAO LUIS TWR
Approach 119.10 MHz SAO LUIS APP
Warning: Do not use this data for real-world aviation or navigation. No guarantee of current accuracy is given.